| time (UTC) | temp F | wind direction | speed knots | gust knots | rain 1hr in | rain 24hr in | rain mn in | humidity % | barometer mb |
| 20260503050520 | 57 | 213 | 0.0 | 0.0 | 0.00 | 0.00 | 0.00 | 52 | 1016.7 |
| 20260503050018 | 57 | 214 | 0.0 | 0.9 | 0.00 | 0.00 | 0.00 | 52 | 1017.0 |
| 20260503045515 | 57 | 217 | 0.0 | 0.0 | 0.00 | 0.00 | 0.00 | 51 | 1016.7 |
| 20260503045012 | 57 | 210 | 0.9 | 0.9 | 0.00 | 0.00 | 0.00 | 50 | 1016.7 |
| 20260503044509 | 57 | 209 | 0.0 | 0.0 | 0.00 | 0.00 | 0.00 | 50 | 1016.9 |
| 20260503044006 | 57 | 215 | 0.0 | 0.0 | 0.00 | 0.00 | 0.00 | 50 | 1017.3 |
| 20260503043502 | 57 | 218 | 0.0 | 0.0 | 0.00 | 0.00 | 0.00 | 49 | 1017.3 |
| 20260503042959 | 57 | 221 | 0.9 | 0.9 | 0.00 | 0.00 | 0.00 | 49 | 1017.2 |
| 20260503042456 | 57 | 217 | 0.0 | 0.0 | 0.00 | 0.00 | 0.00 | 52 | 1017.3 |
| 20260503041952 | 56 | 223 | 0.0 | 0.9 | 0.00 | 0.00 | 0.00 | 50 | 1017.1 |
| 20260503041449 | 56 | 217 | 0.0 | 0.0 | 0.00 | 0.00 | 0.00 | 52 | 1017.4 |
| 20260503040947 | 57 | 220 | 0.0 | 0.0 | 0.00 | 0.00 | 0.00 | 52 | 1017.2 |
| 20260503040444 | 57 | 217 | 0.0 | 0.0 | 0.00 | 0.00 | 0.00 | 51 | 1017.3 |
| 20260503035941 | 57 | 212 | 0.0 | 0.0 | 0.00 | 0.00 | 0.00 | 51 | 1017.5 |
| 20260503035437 | 57 | 212 | 0.0 | 0.0 | 0.00 | 0.00 | 0.00 | 52 | 1017.7 |
| 20260503034935 | 57 | 214 | 0.0 | 0.0 | 0.00 | 0.00 | 0.00 | 51 | 1017.7 |
| 20260503034427 | 57 | 212 | 0.0 | 0.9 | 0.00 | 0.00 | 0.00 | 51 | 1017.8 |
| 20260503033924 | 57 | 209 | 0.9 | 0.9 | 0.00 | 0.00 | 0.00 | 50 | 1017.9 |
| 20260503033421 | 57 | 220 | 0.0 | 0.0 | 0.00 | 0.00 | 0.00 | 50 | 1018.2 |
| 20260503032919 | 57 | 211 | 0.0 | 0.0 | 0.00 | 0.00 | 0.00 | 51 | 1017.9 |
| 20260503032418 | 57 | 217 | 0.0 | 0.0 | 0.00 | 0.00 | 0.00 | 51 | 1018.2 |
| 20260503031915 | 57 | 220 | 0.0 | 0.0 | 0.00 | 0.00 | 0.00 | 51 | 1018.1 |
| 20260503031412 | 57 | 211 | 0.0 | 0.9 | 0.00 | 0.00 | 0.00 | 51 | 1018.1 |
| 20260503030909 | 57 | 214 | 0.0 | 0.9 | 0.00 | 0.00 | 0.00 | 50 | 1018.2 |
| 20260503030405 | 57 | 199 | 1.7 | 2.6 | 0.00 | 0.00 | 0.00 | 46 | 1018.3 |
| 20260503025901 | 56 | 213 | 0.9 | 0.9 | 0.00 | 0.00 | 0.00 | 50 | 1018.2 |
| 20260503025353 | 56 | 216 | 0.9 | 0.9 | 0.00 | 0.00 | 0.00 | 52 | 1018.2 |
| 20260503024850 | 56 | 216 | 0.0 | 0.0 | 0.00 | 0.00 | 0.00 | 52 | 1018.2 |
| 20260503024346 | 56 | 213 | 0.0 | 0.0 | 0.00 | 0.00 | 0.00 | 51 | 1018.3 |
| 20260503023843 | 57 | 212 | 0.0 | 0.0 | 0.00 | 0.00 | 0.00 | 50 | 1018.3 |
| 20260503023341 | 57 | 215 | 0.0 | 0.0 | 0.00 | 0.00 | 0.00 | 49 | 1018.4 |
| 20260503022837 | 57 | 211 | 0.0 | 0.0 | 0.00 | 0.00 | 0.00 | 48 | 1018.5 |
| 20260503022332 | 57 | 213 | 0.0 | 0.0 | 0.00 | 0.00 | 0.00 | 48 | 1018.3 |
| 20260503021829 | 57 | 207 | 0.0 | 0.0 | 0.00 | 0.00 | 0.00 | 47 | 1018.4 |
| 20260503021325 | 57 | 216 | 0.0 | 0.0 | 0.00 | 0.00 | 0.00 | 47 | 1018.5 |
| 20260503020822 | 57 | 210 | 0.9 | 1.7 | 0.00 | 0.00 | 0.00 | 44 | 1018.5 |
| 20260503020321 | 57 | 211 | 0.0 | 0.0 | 0.00 | 0.00 | 0.00 | 48 | 1018.5 |
| 20260503015817 | 57 | 206 | 0.9 | 0.9 | 0.00 | 0.00 | 0.00 | 50 | 1018.5 |
| 20260503015314 | 57 | 192 | 0.9 | 0.9 | 0.00 | 0.00 | 0.00 | 49 | 1018.3 |
| 20260503014809 | 57 | 210 | 0.0 | 0.0 | 0.00 | 0.00 | 0.00 | 47 | 1018.6 |
| 20260503014307 | 57 | 216 | 0.0 | 0.0 | 0.00 | 0.00 | 0.00 | 47 | 1018.5 |
| 20260503013804 | 58 | 214 | 0.0 | 0.0 | 0.00 | 0.00 | 0.00 | 46 | 1018.6 |
| 20260503013302 | 58 | 208 | 0.9 | 0.9 | 0.00 | 0.00 | 0.00 | 45 | 1018.3 |
| 20260503012759 | 58 | 208 | 0.9 | 0.9 | 0.00 | 0.00 | 0.00 | 44 | 1018.6 |
| 20260503012256 | 59 | 211 | 0.0 | 0.0 | 0.00 | 0.00 | 0.00 | 43 | 1018.6 |
| 20260503011753 | 59 | 194 | 0.9 | 0.9 | 0.00 | 0.00 | 0.00 | 43 | 1018.6 |
| 20260503011250 | 59 | 211 | 0.0 | 0.0 | 0.00 | 0.00 | 0.00 | 43 | 1018.5 |
| 20260503010746 | 59 | 215 | 0.0 | 0.0 | 0.00 | 0.00 | 0.00 | 41 | 1018.7 |
| 20260503010243 | 59 | 197 | 0.9 | 0.9 | 0.00 | 0.00 | 0.00 | 43 | 1018.7 |
| 20260503005740 | 59 | 212 | 0.0 | 0.0 | 0.00 | 0.00 | 0.00 | 43 | 1018.6 |
| 20260503005237 | 59 | 216 | 0.0 | 0.0 | 0.00 | 0.00 | 0.00 | 46 | 1018.5 |
| 20260503004733 | 60 | 216 | 0.0 | 0.0 | 0.00 | 0.00 | 0.00 | 42 | 1018.7 |
| 20260503004232 | 60 | 214 | 0.0 | 0.0 | 0.00 | 0.00 | 0.00 | 41 | 1018.7 |
| 20260503003729 | 60 | 202 | 0.9 | 0.9 | 0.00 | 0.00 | 0.00 | 40 | 1018.8 |
| 20260503003226 | 60 | 219 | 0.9 | 0.9 | 0.00 | 0.00 | 0.00 | 39 | 1018.9 |
| 20260503002722 | 60 | 228 | 1.7 | 1.7 | 0.00 | 0.00 | 0.00 | 39 | 1018.7 |
| 20260503002219 | 60 | 213 | 0.9 | 0.9 | 0.00 | 0.00 | 0.00 | 38 | 1019.0 |
| 20260503001714 | 60 | 208 | 0.9 | 1.7 | 0.00 | 0.00 | 0.00 | 38 | 1019.2 |
| 20260503001212 | 60 | 209 | 1.7 | 1.7 | 0.00 | 0.00 | 0.00 | 38 | 1019.2 |
| 20260503000709 | 61 | 251 | 1.7 | 2.6 | 0.00 | 0.00 | 0.00 | 37 | 1019.2 |
| 20260503000207 | 61 | 201 | 2.6 | 4.3 | 0.00 | 0.00 | 0.00 | 37 | 1019.3 |
| 20260502235704 | 61 | 232 | 0.9 | 1.7 | 0.00 | 0.00 | 0.00 | 36 | 1019.1 |
| 20260502235202 | 61 | 208 | 0.9 | 0.9 | 0.00 | 0.00 | 0.00 | 38 | 1019.2 |
| 20260502234657 | 61 | 222 | 1.7 | 1.7 | 0.00 | 0.00 | 0.00 | 37 | 1019.3 |
| 20260502234155 | 61 | 188 | 0.9 | 0.9 | 0.00 | 0.00 | 0.00 | 38 | 1019.2 |
| 20260502233651 | 61 | 189 | 1.7 | 2.6 | 0.00 | 0.00 | 0.00 | 36 | 1019.3 |
| 20260502233148 | 62 | 243 | 0.9 | 0.9 | 0.00 | 0.00 | 0.00 | 36 | 1019.3 |
| 20260502232644 | 61 | 223 | 1.7 | 1.7 | 0.00 | 0.00 | 0.00 | 36 | 1019.7 |
| 20260502232141 | 61 | 221 | 0.9 | 0.9 | 0.00 | 0.00 | 0.00 | 36 | 1019.6 |
| 20260502231637 | 61 | 199 | 0.9 | 1.7 | 0.00 | 0.00 | 0.00 | 37 | 1019.9 |
| 20260502231135 | 61 | 224 | 0.9 | 0.9 | 0.00 | 0.00 | 0.00 | 36 | 1019.6 |
| 20260502230634 | 61 | 208 | 0.9 | 1.7 | 0.00 | 0.00 | 0.00 | 37 | 1019.8 |
| 20260502230132 | 61 | 208 | 1.7 | 1.7 | 0.00 | 0.00 | 0.00 | 38 | 1019.6 |
| 20260502225627 | 61 | 229 | 1.7 | 1.7 | 0.00 | 0.00 | 0.00 | 37 | 1019.9 |
| 20260502225125 | 60 | 215 | 0.0 | 0.0 | 0.00 | 0.00 | 0.00 | 37 | 1019.8 |
| 20260502224621 | 60 | 189 | 2.6 | 2.6 | 0.00 | 0.00 | 0.00 | 38 | 1020.0 |
| 20260502224118 | 61 | 231 | 2.6 | 2.6 | 0.00 | 0.00 | 0.00 | 36 | 1020.1 |
| 20260502223615 | 61 | 229 | 1.7 | 1.7 | 0.00 | 0.00 | 0.00 | 37 | 1020.3 |
| 20260502223114 | 61 | 12 | 2.6 | 4.3 | 0.00 | 0.00 | 0.00 | 36 | 1020.0 |
| 20260502222611 | 62 | 229 | 4.3 | 7.0 | 0.00 | 0.00 | 0.00 | 36 | 1020.0 |
| 20260502222107 | 63 | 213 | 0.9 | 0.9 | 0.00 | 0.00 | 0.00 | 36 | 1019.9 |
| 20260502221603 | 63 | 215 | 0.9 | 1.7 | 0.00 | 0.00 | 0.00 | 34 | 1020.2 |
| 20260502221100 | 63 | 228 | 0.9 | 1.7 | 0.00 | 0.00 | 0.00 | 35 | 1020.2 |
| 20260502220556 | 64 | 263 | 2.6 | 4.3 | 0.00 | 0.00 | 0.00 | 35 | 1020.1 |
| 20260502220052 | 63 | 224 | 1.7 | 2.6 | 0.00 | 0.00 | 0.00 | 34 | 1020.4 |
| 20260502215550 | 62 | 199 | 2.6 | 2.6 | 0.00 | 0.00 | 0.00 | 36 | 1020.3 |
| 20260502215047 | 63 | 219 | 2.6 | 2.6 | 0.00 | 0.00 | 0.00 | 35 | 1020.3 |
| 20260502214543 | 62 | 235 | 0.9 | 1.7 | 0.00 | 0.00 | 0.00 | 36 | 1020.4 |
| 20260502214041 | 62 | 214 | 2.6 | 5.2 | 0.00 | 0.00 | 0.00 | 35 | 1020.4 |
| 20260502213538 | 64 | 209 | 2.6 | 2.6 | 0.00 | 0.00 | 0.00 | 33 | 1020.5 |
| 20260502213036 | 62 | 228 | 0.9 | 1.7 | 0.00 | 0.00 | 0.00 | 35 | 1020.7 |
| 20260502212534 | 62 | 217 | 1.7 | 1.7 | 0.00 | 0.00 | 0.00 | 33 | 1020.9 |
| 20260502212031 | 61 | 227 | 1.7 | 2.6 | 0.00 | 0.00 | 0.00 | 35 | 1021.0 |
| 20260502211521 | 63 | 233 | 1.7 | 2.6 | 0.00 | 0.00 | 0.00 | 34 | 1020.9 |
| 20260502211018 | 63 | 169 | 2.6 | 2.6 | 0.00 | 0.00 | 0.00 | 32 | 1020.9 |
| 20260502210515 | 64 | 265 | 1.7 | 2.6 | 0.00 | 0.00 | 0.00 | 31 | 1020.9 |
| 20260502210012 | 63 | 277 | 2.6 | 4.3 | 0.00 | 0.00 | 0.00 | 34 | 1021.0 |
| 20260502205509 | 63 | 341 | 2.6 | 4.3 | 0.00 | 0.00 | 0.00 | 33 | 1021.2 |
| 20260502205006 | 62 | 236 | 0.9 | 1.7 | 0.00 | 0.00 | 0.00 | 32 | 1021.1 |
| 20260502204503 | 63 | 145 | 1.7 | 2.6 | 0.00 | 0.00 | 0.00 | 31 | 1021.2 |
| 20260502204001 | 62 | 221 | 2.6 | 2.6 | 0.00 | 0.00 | 0.00 | 32 | 1021.1 |
| 20260502203457 | 62 | 211 | 3.5 | 4.3 | 0.00 | 0.00 | 0.00 | 35 | 1021.3 |
| 20260502202954 | 62 | 202 | 0.0 | 0.9 | 0.00 | 0.00 | 0.00 | 34 | 1021.4 |
| 20260502202451 | 62 | 341 | 1.7 | 1.7 | 0.00 | 0.00 | 0.00 | 34 | 1021.6 |
| 20260502201949 | 61 | 228 | 2.6 | 2.6 | 0.00 | 0.00 | 0.00 | 31 | 1021.6 |
| 20260502201444 | 61 | 258 | 0.9 | 1.7 | 0.00 | 0.00 | 0.00 | 35 | 1021.6 |
| 20260502200941 | 62 | 215 | 3.5 | 7.0 | 0.00 | 0.00 | 0.00 | 32 | 1021.8 |
| 20260502200437 | 62 | 221 | 2.6 | 2.6 | 0.00 | 0.00 | 0.00 | 33 | 1021.8 |
| 20260502195935 | 62 | 286 | 0.9 | 2.6 | 0.00 | 0.00 | 0.00 | 34 | 1021.9 |
| 20260502195432 | 61 | 199 | 2.6 | 4.3 | 0.00 | 0.00 | 0.00 | 33 | 1021.8 |
| 20260502194928 | 61 | 200 | 3.5 | 6.1 | 0.00 | 0.00 | 0.00 | 33 | 1022.1 |
| 20260502194425 | 61 | 230 | 3.5 | 4.3 | 0.00 | 0.00 | 0.00 | 33 | 1022.1 |
| 20260502193921 | 60 | 256 | 2.6 | 2.6 | 0.00 | 0.00 | 0.00 | 36 | 1022.1 |
| 20260502193418 | 61 | 206 | 2.6 | 4.3 | 0.00 | 0.00 | 0.00 | 33 | 1022.3 |
| 20260502192913 | 62 | 254 | 1.7 | 1.7 | 0.00 | 0.00 | 0.00 | 32 | 1022.4 |
| 20260502192410 | 61 | 221 | 1.7 | 1.7 | 0.00 | 0.00 | 0.00 | 34 | 1022.2 |
| 20260502191908 | 61 | 223 | 0.9 | 1.7 | 0.00 | 0.00 | 0.00 | 32 | 1022.2 |
| 20260502191406 | 61 | 242 | 4.3 | 6.1 | 0.00 | 0.00 | 0.00 | 30 | 1022.5 |
| 20260502190903 | 62 | 221 | 4.3 | 6.1 | 0.00 | 0.00 | 0.00 | 31 | 1022.2 |
| 20260502190400 | 61 | 227 | 2.6 | 2.6 | 0.00 | 0.00 | 0.00 | 35 | 1022.4 |
| 20260502185856 | 61 | 319 | 7.0 | 7.8 | 0.00 | 0.00 | 0.00 | 30 | 1022.4 |
| 20260502185351 | 60 | 333 | 1.7 | 2.6 | 0.00 | 0.00 | 0.00 | 32 | 1022.7 |
| 20260502184848 | 59 | 157 | 1.7 | 2.6 | 0.00 | 0.00 | 0.00 | 34 | 1022.8 |
| 20260502184338 | 59 | 250 | 2.6 | 2.6 | 0.00 | 0.00 | 0.00 | 33 | 1023.0 |
| 20260502183835 | 59 | 232 | 3.5 | 5.2 | 0.00 | 0.00 | 0.00 | 33 | 1023.1 |
| 20260502183331 | 60 | 148 | 4.3 | 7.0 | 0.00 | 0.00 | 0.00 | 33 | 1023.1 |
| 20260502182826 | 59 | 265 | 1.7 | 1.7 | 0.00 | 0.00 | 0.00 | 33 | 1023.2 |
| 20260502182322 | 59 | 203 | 1.7 | 2.6 | 0.00 | 0.00 | 0.00 | 32 | 1023.4 |
| 20260502181819 | 59 | 113 | 1.7 | 2.6 | 0.00 | 0.00 | 0.00 | 32 | 1023.4 |
| 20260502181318 | 58 | 253 | 2.6 | 2.6 | 0.00 | 0.00 | 0.00 | 36 | 1023.4 |
| 20260502180815 | 60 | 272 | 2.6 | 4.3 | 0.00 | 0.00 | 0.00 | 34 | 1023.7 |
| 20260502180313 | 60 | 259 | 2.6 | 4.3 | 0.00 | 0.00 | 0.00 | 33 | 1023.6 |
| 20260502170231 | 56 | 234 | 4.3 | 5.2 | 0.00 | 0.00 | 0.00 | 33 | 1024.1 |
| 20260502164218 | 56 | 323 | 2.6 | 2.6 | 0.00 | 0.00 | 0.00 | 39 | 1024.3 |
| 20260502163713 | 56 | 177 | 4.3 | 6.1 | 0.00 | 0.00 | 0.00 | 36 | 1024.2 |
| 20260502163205 | 56 | 256 | 3.5 | 5.2 | 0.00 | 0.00 | 0.00 | 37 | 1024.6 |
| 20260502162702 | 57 | 252 | 3.5 | 6.1 | 0.00 | 0.00 | 0.00 | 36 | 1024.6 |
| 20260502162159 | 57 | 54 | 3.5 | 4.3 | 0.00 | 0.00 | 0.00 | 38 | 1024.8 |
| 20260502161656 | 56 | 239 | 3.5 | 6.1 | 0.00 | 0.00 | 0.00 | 38 | 1024.7 |
| 20260502161152 | 56 | 217 | 1.7 | 2.6 | 0.00 | 0.00 | 0.00 | 37 | 1024.7 |
| 20260502160651 | 56 | 248 | 2.6 | 2.6 | 0.00 | 0.00 | 0.00 | 38 | 1024.6 |
| 20260502160150 | 55 | 254 | 1.7 | 2.6 | 0.00 | 0.00 | 0.00 | 39 | 1024.5 |
| 20260502152109 | 54 | 250 | 1.7 | 1.7 | 0.00 | 0.00 | 0.00 | 46 | 1025.2 |
| 20260502151606 | 53 | 219 | 1.7 | 2.6 | 0.00 | 0.00 | 0.00 | 46 | 1025.2 |
| 20260502151103 | 53 | 239 | 0.9 | 1.7 | 0.00 | 0.00 | 0.00 | 45 | 1025.3 |
| 20260502150601 | 53 | 226 | 1.7 | 1.7 | 0.00 | 0.00 | 0.00 | 47 | 1025.2 |
| 20260502130446 | 42 | 213 | 0.9 | 1.7 | 0.00 | 0.00 | 0.00 | 68 | 1025.8 |
| 20260502123428 | 40 | 182 | 0.9 | 0.9 | 0.00 | 0.00 | 0.00 | 71 | 1025.9 |
| 20260502122926 | 39 | 204 | 0.0 | 0.0 | 0.00 | 0.00 | 0.00 | 74 | 1025.8 |
| 20260502122422 | 38 | 215 | 0.0 | 0.0 | 0.00 | 0.00 | 0.00 | 75 | 1026.0 |
| 20260502121920 | 37 | 209 | 0.0 | 0.9 | 0.00 | 0.00 | 0.00 | 76 | 1025.7 |
| 20260502121417 | 37 | 214 | 0.0 | 0.0 | 0.00 | 0.00 | 0.00 | 76 | 1025.9 |
| 20260502120915 | 36 | 211 | 0.0 | 0.0 | 0.00 | 0.00 | 0.00 | 76 | 1025.8 |
| 20260502120410 | 35 | 212 | 0.0 | 0.0 | 0.00 | 0.00 | 0.00 | 79 | 1025.7 |
| 20260502115908 | 33 | 217 | 0.0 | 0.0 | 0.00 | 0.00 | 0.00 | 81 | 1025.6 |
| 20260502115405 | 33 | 220 | 0.0 | 0.0 | 0.00 | 0.00 | 0.00 | 81 | 1025.7 |
| 20260502114900 | 32 | 217 | 0.0 | 0.0 | 0.00 | 0.00 | 0.00 | 82 | 1025.7 |
| 20260502114358 | 32 | 223 | 0.0 | 0.0 | 0.00 | 0.00 | 0.00 | 82 | 1025.6 |
| 20260502113855 | 32 | 220 | 0.0 | 0.0 | 0.00 | 0.00 | 0.00 | 82 | 1025.7 |
| 20260502113352 | 31 | 216 | 0.0 | 0.0 | 0.00 | 0.00 | 0.00 | 82 | 1025.5 |
| 20260502112850 | 31 | 217 | 0.0 | 0.0 | 0.00 | 0.00 | 0.00 | 82 | 1025.7 |
| 20260502112348 | 31 | 214 | 0.0 | 0.0 | 0.00 | 0.00 | 0.00 | 82 | 1025.5 |
| 20260502111845 | 31 | 216 | 0.0 | 0.0 | 0.00 | 0.00 | 0.00 | 82 | 1025.6 |
| 20260502111342 | 31 | 216 | 0.0 | 0.0 | 0.00 | 0.00 | 0.00 | 82 | 1025.5 |
| 20260502110840 | 31 | 216 | 0.0 | 0.0 | 0.00 | 0.00 | 0.00 | 81 | 1025.3 |
| 20260502110338 | 32 | 217 | 0.0 | 0.0 | 0.00 | 0.00 | 0.00 | 81 | 1025.4 |
| 20260502105835 | 32 | 210 | 0.0 | 0.0 | 0.00 | 0.00 | 0.00 | 81 | 1025.6 |
| 20260502105332 | 32 | 200 | 0.0 | 0.0 | 0.00 | 0.00 | 0.00 | 82 | 1025.6 |
| 20260502104830 | 32 | 215 | 0.0 | 0.0 | 0.00 | 0.00 | 0.00 | 82 | 1025.9 |
| 20260502104327 | 32 | 212 | 0.0 | 0.0 | 0.00 | 0.00 | 0.00 | 82 | 1025.4 |
| 20260502103824 | 32 | 216 | 0.0 | 0.0 | 0.00 | 0.00 | 0.00 | 82 | 1025.7 |
| 20260502103321 | 32 | 215 | 0.0 | 0.0 | 0.00 | 0.00 | 0.00 | 82 | 1025.6 |
| 20260502102818 | 32 | 207 | 0.0 | 0.0 | 0.00 | 0.00 | 0.00 | 80 | 1025.6 |
| 20260502102314 | 33 | 211 | 0.0 | 0.0 | 0.00 | 0.00 | 0.00 | 79 | 1025.5 |
| 20260502101813 | 33 | 218 | 0.0 | 0.0 | 0.00 | 0.00 | 0.00 | 78 | 1025.6 |
| 20260502101310 | 33 | 212 | 0.0 | 0.0 | 0.00 | 0.00 | 0.00 | 80 | 1025.6 |
| 20260502100809 | 33 | 215 | 0.0 | 0.0 | 0.00 | 0.00 | 0.00 | 79 | 1025.7 |
| 20260502100307 | 33 | 199 | 0.0 | 0.9 | 0.00 | 0.00 | 0.00 | 79 | 1025.7 |
| 20260502091241 | 36 | 173 | 1.7 | 2.6 | 0.00 | 0.00 | 0.00 | 70 | 1025.9 |
| 20260502090739 | 36 | 210 | 0.9 | 0.9 | 0.00 | 0.00 | 0.00 | 70 | 1025.8 |
| 20260502090235 | 36 | 209 | 0.0 | 0.0 | 0.00 | 0.00 | 0.00 | 71 | 1025.9 |
| 20260502071136 | 33 | 218 | 0.0 | 0.0 | 0.00 | 0.00 | 0.00 | 82 | 1026.3 |
| 20260502070634 | 33 | 215 | 0.0 | 0.0 | 0.00 | 0.00 | 0.00 | 82 | 1026.2 |
| 20260502070131 | 33 | 210 | 0.0 | 0.0 | 0.00 | 0.00 | 0.00 | 81 | 1026.5 |
| 20260502065629 | 33 | 214 | 0.0 | 0.0 | 0.00 | 0.00 | 0.00 | 81 | 1026.5 |
| 20260502065126 | 33 | 215 | 0.0 | 0.0 | 0.00 | 0.00 | 0.00 | 79 | 1026.4 |
| 20260502064626 | 33 | 216 | 0.0 | 0.0 | 0.00 | 0.00 | 0.00 | 78 | 1026.5 |
| 20260502064122 | 33 | 206 | 0.0 | 0.0 | 0.00 | 0.00 | 0.00 | 76 | 1026.4 |
| 20260502063620 | 33 | 214 | 0.0 | 0.0 | 0.00 | 0.00 | 0.00 | 75 | 1026.6 |
| 20260502063117 | 34 | 216 | 0.0 | 0.0 | 0.00 | 0.00 | 0.00 | 75 | 1026.6 |
| 20260502062614 | 34 | 218 | 0.0 | 0.0 | 0.00 | 0.00 | 0.00 | 74 | 1026.5 |
| 20260502062112 | 34 | 216 | 0.0 | 0.0 | 0.00 | 0.00 | 0.00 | 72 | 1026.5 |
| 20260502061610 | 34 | 218 | 0.0 | 0.0 | 0.00 | 0.00 | 0.00 | 73 | 1026.5 |
| 20260502061107 | 34 | 218 | 0.0 | 0.0 | 0.00 | 0.00 | 0.00 | 72 | 1026.3 |
| 20260502060602 | 35 | 215 | 0.0 | 0.0 | 0.00 | 0.00 | 0.00 | 70 | 1026.4 |
| 20260502060059 | 35 | 203 | 0.0 | 0.0 | 0.00 | 0.00 | 0.00 | 71 | 1026.3 |
| 20260502055556 | 34 | 214 | 0.0 | 0.0 | 0.00 | 0.00 | 0.00 | 72 | 1026.6 |
| 20260502055055 | 34 | 214 | 0.0 | 0.0 | 0.00 | 0.00 | 0.00 | 72 | 1026.6 |
| 20260502054553 | 35 | 215 | 0.0 | 0.0 | 0.00 | 0.00 | 0.00 | 71 | 1026.4 |
| 20260502054049 | 35 | 216 | 0.0 | 0.0 | 0.00 | 0.00 | 0.00 | 70 | 1026.6 |
| 20260502053546 | 35 | 217 | 0.0 | 0.0 | 0.00 | 0.00 | 0.00 | 70 | 1026.1 |
| 20260502053044 | 35 | 213 | 0.0 | 0.0 | 0.00 | 0.00 | 0.00 | 69 | 1026.3 |
| 20260502052543 | 36 | 216 | 0.0 | 0.0 | 0.00 | 0.00 | 0.00 | 68 | 1026.5 |
| 20260502052040 | 36 | 216 | 0.0 | 0.0 | 0.00 | 0.00 | 0.00 | 68 | 1026.7 |
| 20260502051538 | 36 | 216 | 0.0 | 0.0 | 0.00 | 0.00 | 0.00 | 67 | 1026.3 |
| 20260502051036 | 36 | 220 | 0.0 | 0.0 | 0.00 | 0.00 | 0.00 | 67 | 1026.4 |